Time;durP1;ratioP1;P1;durP2;ratioP2;P2;SDS_P1;SDS_P2;PMS_P1;PMS_P2;Temp;Humidity;BMP_temperature;BMP_pressure;BME280_temperature;BME280_humidity;BME280_pressure;Samples;Min_cycle;Max_cycle;Signal;HPM_P1;HPM_P2
2022/07/14 04:01:47;;;;;;;1999.90;999.90;;;;;;;;;;6267656;22;20233;-69
2022/07/14 04:04:32;;;;;;;1999.90;999.90;;;;;;;;;;6304700;22;20457;-70
2022/07/14 04:07:17;;;;;;;1999.90;999.90;;;;;;;;;;6306029;22;20625;-70
2022/07/14 04:10:02;;;;;;;1999.90;999.90;;;;;;;;;;6305812;22;20163;-71
2022/07/14 04:12:47;;;;;;;1999.90;999.90;;;;;;;;;;6275049;22;20295;-70
2022/07/14 04:15:32;;;;;;;1999.90;999.90;;;;;;;;;;6274930;22;20678;-70
2022/07/14 04:18:18;;;;;;;1999.90;999.90;;;;;;;;;;6274838;22;20167;-69
2022/07/14 04:21:04;;;;;;;1999.90;999.90;;;;;;;;;;6274875;22;20271;-70
2022/07/14 04:23:49;;;;;;;1999.90;999.90;;;;;;;;;;6274996;22;20255;-69
2022/07/14 04:26:37;;;;;;;1999.90;999.90;;;;;;;;;;6274965;22;20171;-70
2022/07/14 04:29:23;;;;;;;1999.90;999.90;;;;;;;;;;6274623;22;20237;-69
2022/07/14 04:32:08;;;;;;;1999.90;999.90;;;;;;;;;;6274794;22;20212;-68
2022/07/14 04:34:54;;;;;;;1999.90;999.90;;;;;;;;;;6276459;22;20164;-69
2022/07/14 04:37:39;;;;;;;1999.90;999.90;;;;;;;;;;6275607;22;20486;-69
2022/07/14 04:40:24;;;;;;;1999.90;999.90;;;;;;;;;;6276829;22;20164;-69
2022/07/14 04:43:09;;;;;;;1999.90;999.90;;;;;;;;;;6276901;22;20498;-70
2022/07/14 04:45:54;;;;;;;1999.90;999.90;;;;;;;;;;6276955;22;20167;-69
2022/07/14 04:54:42;;;;;;;1999.90;999.90;;;;;;;;;;6275276;22;20479;-69
2022/07/14 04:57:27;;;;;;;1999.90;999.90;;;;;;;;;;6276030;22;20878;-69
2022/07/14 05:00:13;;;;;;;1999.90;999.90;;;;;;;;;;6276635;22;20244;-69
2022/07/14 05:02:58;;;;;;;1999.90;999.90;;;;;;;;;;6275456;22;20649;-70
2022/07/14 05:05:43;;;;;;;1999.90;999.90;;;;;;;;;;6276251;22;20180;-70
2022/07/14 05:08:29;;;;;;;1999.90;999.90;;;;;;;;;;6276066;22;20550;-70
2022/07/14 05:11:14;;;;;;;1999.90;999.90;;;;;;;;;;6275106;22;20208;-70
2022/07/14 05:13:59;;;;;;;1999.90;999.90;;;;;;;;;;6275787;22;20172;-68
2022/07/14 05:16:45;;;;;;;1999.90;999.90;;;;;;;;;;6275194;22;20188;-68
2022/07/14 05:19:30;;;;;;;1999.90;999.90;;;;;;;;;;6275060;22;20168;-69
2022/07/14 05:22:15;;;;;;;1999.90;999.90;;;;;;;;;;6275076;22;20282;-70
2022/07/14 05:25:02;;;;;;;1999.90;999.90;;;;;;;;;;6275421;22;20168;-69
2022/07/14 05:27:47;;;;;;;1999.90;999.90;;;;;;;;;;6275593;22;20235;-70
2022/07/14 05:30:31;;;;;;;1999.90;999.90;;;;;;;;;;6274849;22;20238;-70
2022/07/14 05:33:16;;;;;;;1999.90;999.90;;;;;;;;;;6275179;22;20163;-70
2022/07/14 05:36:01;;;;;;;1999.90;999.90;;;;;;;;;;6275194;22;20168;-70
2022/07/14 05:38:46;;;;;;;1999.90;999.90;;;;;;;;;;6274731;22;20698;-70
2022/07/14 05:41:32;;;;;;;1999.90;999.90;;;;;;;;;;6275024;22;20204;-71
2022/07/14 05:44:17;;;;;;;1999.90;999.90;;;;;;;;;;6274514;22;20381;-69
2022/07/14 05:47:02;;;;;;;1999.90;999.90;;;;;;;;;;6275108;22;20540;-70
2022/07/14 05:49:47;;;;;;;1999.90;999.90;;;;;;;;;;6274761;22;20172;-69
2022/07/14 05:52:33;;;;;;;1999.90;999.90;;;;;;;;;;6275096;22;20199;-70
2022/07/14 05:55:18;;;;;;;1999.90;999.90;;;;;;;;;;6275087;22;20172;-69
2022/07/14 05:58:04;;;;;;;1999.90;999.90;;;;;;;;;;6275196;22;20610;-69
2022/07/14 06:00:49;;;;;;;1999.90;999.90;;;;;;;;;;6275493;22;20205;-71
2022/07/14 06:03:34;;;;;;;1999.90;999.90;;;;;;;;;;6274122;22;20170;-69
2022/07/14 06:06:20;;;;;;;1999.90;999.90;;;;;;;;;;6274880;22;20668;-69
2022/07/14 06:09:05;;;;;;;1999.90;999.90;;;;;;;;;;6274517;22;20207;-70
2022/07/14 06:11:51;;;;;;;1999.90;999.90;;;;;;;;;;6274665;22;20203;-69
2022/07/14 06:14:37;;;;;;;1999.90;999.90;;;;;;;;;;6274885;22;20168;-68
2022/07/14 06:17:22;;;;;;;1999.90;999.90;;;;;;;;;;6274554;22;20192;-69
2022/07/14 06:20:07;;;;;;;1999.90;999.90;;;;;;;;;;6274483;22;20304;-70
2022/07/14 06:22:52;;;;;;;1999.90;999.90;;;;;;;;;;6275391;22;20279;-70
2022/07/14 06:25:37;;;;;;;1999.90;999.90;;;;;;;;;;6276026;22;20163;-70
2022/07/14 06:28:22;;;;;;;1999.90;999.90;;;;;;;;;;6274315;22;20173;-69
2022/07/14 06:31:08;;;;;;;1999.90;999.90;;;;;;;;;;6274768;22;20199;-70
2022/07/14 06:33:54;;;;;;;1999.90;999.90;;;;;;;;;;6275479;22;20211;-69
2022/07/14 06:36:38;;;;;;;1999.90;999.90;;;;;;;;;;6274844;22;20453;-69
2022/07/14 06:39:23;;;;;;;1999.90;999.90;;;;;;;;;;6274197;22;20234;-69
2022/07/14 06:42:09;;;;;;;1999.90;999.90;;;;;;;;;;6273051;22;20205;-69
2022/07/14 06:44:54;;;;;;;1999.90;999.90;;;;;;;;;;6273527;22;20175;-69
2022/07/14 06:47:40;;;;;;;1999.90;999.90;;;;;;;;;;6273392;22;20626;-69
2022/07/14 06:50:25;;;;;;;1999.90;999.90;;;;;;;;;;6273301;22;20183;-68
2022/07/14 06:53:10;;;;;;;1999.90;999.90;;;;;;;;;;6273354;22;20167;-71
2022/07/14 06:55:55;;;;;;;1999.90;999.90;;;;;;;;;;6273570;22;20167;-69
2022/07/14 06:58:40;;;;;;;1999.90;999.90;;;;;;;;;;6271293;22;20249;-69
2022/07/14 07:01:25;;;;;;;1999.90;999.90;;;;;;;;;;6272273;22;20724;-69
2022/07/14 07:04:12;;;;;;;1999.90;999.90;;;;;;;;;;6272180;22;20172;-70
2022/07/14 07:06:56;;;;;;;1999.90;999.90;;;;;;;;;;6272219;22;20199;-69
2022/07/14 07:09:40;;;;;;;1999.90;999.90;;;;;;;;;;6271860;22;20858;-70
2022/07/14 07:12:25;;;;;;;1999.90;999.90;;;;;;;;;;6272619;22;20247;-70
2022/07/14 07:15:10;;;;;;;1999.90;999.90;;;;;;;;;;6273200;22;20164;-70
2022/07/14 07:17:55;;;;;;;1999.90;999.90;;;;;;;;;;6272516;22;20277;-69
2022/07/14 07:20:42;;;;;;;1999.90;999.90;;;;;;;;;;6273117;22;20200;-70
2022/07/14 07:23:26;;;;;;;1999.90;999.90;;;;;;;;;;6272369;22;20210;-70
2022/07/14 07:26:12;;;;;;;1999.90;999.90;;;;;;;;;;6272589;22;20418;-69
2022/07/14 07:28:57;;;;;;;1999.90;999.90;;;;;;;;;;6272574;22;20160;-68
2022/07/14 07:31:42;;;;;;;1999.90;999.90;;;;;;;;;;6273096;22;20274;-69
2022/07/14 07:34:26;;;;;;;1999.90;999.90;;;;;;;;;;6271522;22;20273;-69
2022/07/14 07:37:13;;;;;;;1999.90;999.90;;;;;;;;;;6271489;22;20569;-69
2022/07/14 07:39:58;;;;;;;1999.90;999.90;;;;;;;;;;6271735;22;20168;-69
2022/07/14 07:42:43;;;;;;;1999.90;999.90;;;;;;;;;;6271904;22;20200;-69
2022/07/14 07:45:28;;;;;;;1999.90;999.90;;;;;;;;;;6272218;22;20515;-68
2022/07/14 07:48:13;;;;;;;1999.90;999.90;;;;;;;;;;6271313;22;20164;-70
2022/07/14 07:50:58;;;;;;;1999.90;999.90;;;;;;;;;;6271842;22;20208;-69
2022/07/14 07:53:45;;;;;;;1999.90;999.90;;;;;;;;;;6271667;22;20212;-69
2022/07/14 07:56:30;;;;;;;1999.90;999.90;;;;;;;;;;6272691;22;20164;-69
2022/07/14 07:59:15;;;;;;;1999.90;999.90;;;;;;;;;;6270983;22;20387;-68
2022/07/14 08:02:01;;;;;;;1999.90;999.90;;;;;;;;;;6272678;22;20595;-69
2022/07/14 08:04:48;;;;;;;1999.90;999.90;;;;;;;;;;6272615;22;20730;-69
2022/07/14 08:07:33;;;;;;;1999.90;999.90;;;;;;;;;;6272701;22;20163;-69
2022/07/14 08:10:19;;;;;;;1999.90;999.90;;;;;;;;;;6272437;22;20252;-69
2022/07/14 08:13:05;;;;;;;1999.90;999.90;;;;;;;;;;6272560;22;20172;-69
2022/07/14 08:15:50;;;;;;;1999.90;999.90;;;;;;;;;;6272868;22;20168;-69
2022/07/14 08:18:35;;;;;;;1999.90;999.90;;;;;;;;;;6272463;22;20191;-69
2022/07/14 08:21:20;;;;;;;1999.90;999.90;;;;;;;;;;6271838;22;20253;-69
2022/07/14 08:24:05;;;;;;;1999.90;999.90;;;;;;;;;;6272808;22;20246;-69
2022/07/14 08:26:52;;;;;;;1999.90;999.90;;;;;;;;;;6271219;22;20199;-69
2022/07/14 08:29:37;;;;;;;1999.90;999.90;;;;;;;;;;6271970;22;20219;-69
2022/07/14 08:32:37;;;;;;;1999.90;999.90;;;;;;;;;;6271507;22;20246;-68
2022/07/14 08:35:23;;;;;;;1999.90;999.90;;;;;;;;;;6271692;22;20248;-69
2022/07/14 08:38:08;;;;;;;1999.90;999.90;;;;;;;;;;6270880;22;20334;-69
2022/07/14 08:40:55;;;;;;;1999.90;999.90;;;;;;;;;;6272329;22;20215;-69
2022/07/14 08:43:42;;;;;;;1999.90;999.90;;;;;;;;;;6271921;22;20280;-70
2022/07/14 08:46:27;;;;;;;1999.90;999.90;;;;;;;;;;6271911;22;20168;-70
2022/07/14 08:49:12;;;;;;;1999.90;999.90;;;;;;;;;;6270780;22;20165;-69
2022/07/14 08:51:57;;;;;;;1999.90;999.90;;;;;;;;;;6272853;22;20258;-70
2022/07/14 08:54:42;;;;;;;1999.90;999.90;;;;;;;;;;6271858;22;20235;-69
2022/07/14 08:57:27;;;;;;;1999.90;999.90;;;;;;;;;;6272209;22;20275;-69
2022/07/14 09:00:15;;;;;;;1999.90;999.90;;;;;;;;;;6271899;22;20385;-69
2022/07/14 09:03:00;;;;;;;1999.90;999.90;;;;;;;;;;6272427;22;20367;-70
2022/07/14 09:05:45;;;;;;;1999.90;999.90;;;;;;;;;;6271173;22;20827;-69
2022/07/14 09:08:31;;;;;;;1999.90;999.90;;;;;;;;;;6271608;22;20160;-70
2022/07/14 09:11:17;;;;;;;1999.90;999.90;;;;;;;;;;6270698;22;20204;-69
2022/07/14 09:14:08;;;;;;;1999.90;999.90;;;;;;;;;;6271820;22;20555;-70
2022/07/14 09:17:13;;;;;;;1999.90;999.90;;;;;;;;;;6272359;22;20183;-69
2022/07/14 09:20:02;;;;;;;1999.90;999.90;;;;;;;;;;6273544;22;20504;-69
2022/07/14 09:22:47;;;;;;;1999.90;999.90;;;;;;;;;;6273764;22;20167;-70
2022/07/14 09:25:34;;;;;;;1999.90;999.90;;;;;;;;;;6274237;22;20230;-69
2022/07/14 09:28:25;;;;;;;1999.90;999.90;;;;;;;;;;6274101;22;20173;-68
2022/07/14 09:31:22;;;;;;;1999.90;999.90;;;;;;;;;;6274236;22;20246;-69
2022/07/14 09:34:11;;;;;;;1999.90;999.90;;;;;;;;;;6274348;22;20231;-68
2022/07/14 09:37:10;;;;;;;1999.90;999.90;;;;;;;;;;6273443;22;20181;-69
2022/07/14 09:39:56;;;;;;;1999.90;999.90;;;;;;;;;;6271857;22;20904;-69
2022/07/14 09:42:50;;;;;;;1999.90;999.90;;;;;;;;;;6274078;22;20204;-69
2022/07/14 09:45:35;;;;;;;1999.90;999.90;;;;;;;;;;6273264;22;20187;-69
2022/07/14 09:48:21;;;;;;;1999.90;999.90;;;;;;;;;;6273928;22;20243;-71
2022/07/14 09:51:08;;;;;;;1999.90;999.90;;;;;;;;;;6274331;22;20245;-70
2022/07/14 09:53:53;;;;;;;1999.90;999.90;;;;;;;;;;6273707;22;20267;-69
2022/07/14 09:56:38;;;;;;;1999.90;999.90;;;;;;;;;;6273000;22;20366;-69
2022/07/14 09:59:23;;;;;;;1999.90;999.90;;;;;;;;;;6274044;22;20277;-69
2022/07/14 10:02:10;;;;;;;1999.90;999.90;;;;;;;;;;6273432;22;20728;-69
2022/07/14 10:04:55;;;;;;;1999.90;999.90;;;;;;;;;;6273886;22;20221;-69
2022/07/14 10:07:42;;;;;;;1999.90;999.90;;;;;;;;;;6272885;22;20784;-70
2022/07/14 10:10:27;;;;;;;1999.90;999.90;;;;;;;;;;6272543;22;20168;-69
2022/07/14 10:13:13;;;;;;;1999.90;999.90;;;;;;;;;;6272302;22;20658;-69
2022/07/14 10:15:58;;;;;;;1999.90;999.90;;;;;;;;;;6273688;22;20230;-69
2022/07/14 10:18:43;;;;;;;1999.90;999.90;;;;;;;;;;6272687;22;20237;-70
2022/07/14 10:21:28;;;;;;;1999.90;999.90;;;;;;;;;;6273291;22;20250;-69
2022/07/14 10:24:15;;;;;;;1999.90;999.90;;;;;;;;;;6273692;22;20168;-69
2022/07/14 10:27:01;;;;;;;1999.90;999.90;;;;;;;;;;6274200;22;20199;-68
2022/07/14 10:29:48;;;;;;;1999.90;999.90;;;;;;;;;;6273128;22;20191;-69
2022/07/14 10:32:39;;;;;;;1999.90;999.90;;;;;;;;;;6276048;22;20296;-70
2022/07/14 10:35:35;;;;;;;1999.90;999.90;;;;;;;;;;6273754;22;20172;-70
2022/07/14 10:38:30;;;;;;;1999.90;999.90;;;;;;;;;;6273099;22;20230;-69
2022/07/14 10:41:22;;;;;;;1999.90;999.90;;;;;;;;;;6273564;22;20253;-69
2022/07/14 10:44:10;;;;;;;1999.90;999.90;;;;;;;;;;6273092;22;20168;-69
2022/07/14 10:47:06;;;;;;;1999.90;999.90;;;;;;;;;;6272993;22;20375;-69
2022/07/14 10:50:02;;;;;;;1999.90;999.90;;;;;;;;;;6273400;22;20188;-68
2022/07/14 10:52:56;;;;;;;1999.90;999.90;;;;;;;;;;6273738;22;20250;-68
2022/07/14 10:55:47;;;;;;;1999.90;999.90;;;;;;;;;;6272996;22;20172;-69
2022/07/14 10:58:33;;;;;;;1999.90;999.90;;;;;;;;;;6272101;22;20195;-69
2022/07/14 11:01:18;;;;;;;1999.90;999.90;;;;;;;;;;6271499;22;20223;-69
2022/07/14 11:04:03;;;;;;;1999.90;999.90;;;;;;;;;;6272391;22;20167;-69
2022/07/14 11:06:48;;;;;;;1999.90;999.90;;;;;;;;;;6272210;22;20601;-69
2022/07/14 11:09:33;;;;;;;1999.90;999.90;;;;;;;;;;6272266;22;20627;-70
2022/07/14 11:12:18;;;;;;;1999.90;999.90;;;;;;;;;;6272742;22;20282;-69
2022/07/14 11:15:25;;;;;;;1999.90;999.90;;;;;;;;;;6272958;22;20167;-70
2022/07/14 11:31:28;;;;;;;1999.90;999.90;;;;;;;;;;5095732;27;20588;-69
2022/07/14 11:37:25;;;;;;;1999.90;999.90;;;;;;;;;;5083527;28;21184;-70
2022/07/14 11:40:25;;;;;;;1999.90;999.90;;;;;;;;;;5086208;28;20522;-70
2022/07/14 11:43:28;;;;;;;1999.90;999.90;;;;;;;;;;5084291;28;20278;-69
2022/07/14 11:46:14;;;;;;;1999.90;999.90;;;;;;;;;;5085989;28;20279;-69
2022/07/14 11:49:01;;;;;;;1999.90;999.90;;;;;;;;;;5084054;28;20779;-70
2022/07/14 11:51:48;;;;;;;1999.90;999.90;;;;;;;;;;5084387;28;20718;-69
2022/07/14 11:54:34;;;;;;;1999.90;999.90;;;;;;;;;;5086402;28;20228;-69
2022/07/14 11:57:19;;;;;;;1999.90;999.90;;;;;;;;;;5086126;28;20214;-69
2022/07/14 12:00:07;;;;;;;1999.90;999.90;;;;;;;;;;5085855;28;20228;-69
2022/07/14 12:02:53;;;;;;;1999.90;999.90;;;;;;;;;;5086556;28;20212;-69
2022/07/14 12:05:39;;;;;;;1999.90;999.90;;;;;;;;;;5086027;28;20258;-70
2022/07/14 12:08:24;;;;;;;1999.90;999.90;;;;;;;;;;5085678;28;20207;-70
2022/07/14 12:11:11;;;;;;;1999.90;999.90;;;;;;;;;;5083575;28;20224;-69
2022/07/14 12:13:56;;;;;;;1999.90;999.90;;;;;;;;;;5081746;28;20214;-69
2022/07/14 12:16:44;;;;;;;1999.90;999.90;;;;;;;;;;5082755;28;20589;-69
2022/07/14 12:19:29;;;;;;;1999.90;999.90;;;;;;;;;;5083931;28;20219;-70
2022/07/14 12:22:16;;;;;;;1999.90;999.90;;;;;;;;;;5085501;28;20227;-69
2022/07/14 12:25:01;;;;;;;1999.90;999.90;;;;;;;;;;5083850;28;20216;-70
2022/07/14 12:27:46;;;;;;;1999.90;999.90;;;;;;;;;;5085867;28;20266;-69
2022/07/14 12:30:46;;;;;;;1999.90;999.90;;;;;;;;;;5082424;28;20577;-70
2022/07/14 12:33:32;;;;;;;1999.90;999.90;;;;;;;;;;5069188;28;20237;-70
2022/07/14 12:36:18;;;;;;;1999.90;999.90;;;;;;;;;;5070791;28;20323;-70
2022/07/14 12:39:06;;;;;;;1999.90;999.90;;;;;;;;;;5068525;28;20230;-70
2022/07/14 12:41:51;;;;;;;1999.90;999.90;;;;;;;;;;5068647;28;20235;-69
2022/07/14 12:44:46;;;;;;;1999.90;999.90;;;;;;;;;;5071900;28;20210;-69
2022/07/14 12:47:31;;;;;;;1999.90;999.90;;;;;;;;;;5068271;28;20252;-69
2022/07/14 12:50:21;;;;;;;1999.90;999.90;;;;;;;;;;5069978;28;20278;-70
2022/07/14 12:53:09;;;;;;;1999.90;999.90;;;;;;;;;;5070492;28;20209;-70
2022/07/14 12:56:00;;;;;;;1999.90;999.90;;;;;;;;;;5072025;28;20203;-70
2022/07/14 12:58:45;;;;;;;1999.90;999.90;;;;;;;;;;5071839;28;20206;-71
2022/07/14 13:01:30;;;;;;;1999.90;999.90;;;;;;;;;;5068618;28;20327;-70
2022/07/14 13:04:27;;;;;;;1999.90;999.90;;;;;;;;;;5071481;28;20206;-70
2022/07/14 13:07:18;;;;;;;1999.90;999.90;;;;;;;;;;5069941;28;20220;-71
2022/07/14 13:10:10;;;;;;;1999.90;999.90;;;;;;;;;;5070946;28;20274;-70
2022/07/14 13:12:57;;;;;;;1999.90;999.90;;;;;;;;;;5070751;28;20199;-68
2022/07/14 13:15:42;;;;;;;1999.90;999.90;;;;;;;;;;5068391;28;20935;-70
2022/07/14 13:18:27;;;;;;;1999.90;999.90;;;;;;;;;;5066321;28;21547;-71
2022/07/14 13:21:12;;;;;;;1999.90;999.90;;;;;;;;;;5068137;28;20236;-70
2022/07/14 13:23:57;;;;;;;1999.90;999.90;;;;;;;;;;5071213;28;20222;-70
2022/07/14 13:26:42;;;;;;;1999.90;999.90;;;;;;;;;;5067443;28;20215;-69
2022/07/14 13:29:29;;;;;;;1999.90;999.90;;;;;;;;;;5066910;28;20880;-69
2022/07/14 13:32:15;;;;;;;1999.90;999.90;;;;;;;;;;5071018;28;20346;-70
2022/07/14 13:34:59;;;;;;;1999.90;999.90;;;;;;;;;;5070640;28;20230;-70
2022/07/14 13:37:44;;;;;;;1999.90;999.90;;;;;;;;;;5067689;28;20231;-70
2022/07/14 13:40:29;;;;;;;1999.90;999.90;;;;;;;;;;5070288;28;20356;-70
2022/07/14 13:43:14;;;;;;;1999.90;999.90;;;;;;;;;;5071329;28;20204;-71
2022/07/14 13:46:01;;;;;;;1999.90;999.90;;;;;;;;;;5071228;28;20345;-70
2022/07/14 13:48:46;;;;;;;1999.90;999.90;;;;;;;;;;5070127;28;20500;-70
2022/07/14 13:54:34;;;;;;;1999.90;999.90;;;;;;;;;;5073063;28;20198;-70
2022/07/14 13:57:19;;;;;;;1999.90;999.90;;;;;;;;;;5073101;28;20694;-70
2022/07/14 14:00:05;;;;;;;1999.90;999.90;;;;;;;;;;5072662;28;20297;-70
2022/07/14 14:05:55;;;;;;;1999.90;999.90;;;;;;;;;;5071585;28;20411;-69
2022/07/14 14:08:41;;;;;;;1999.90;999.90;;;;;;;;;;5072608;28;20246;-69
2022/07/14 14:11:26;;;;;;;1999.90;999.90;;;;;;;;;;5072783;28;20757;-69
2022/07/14 14:14:12;;;;;;;1999.90;999.90;;;;;;;;;;5072553;28;20609;-70
2022/07/14 14:16:57;;;;;;;1999.90;999.90;;;;;;;;;;5072804;28;20716;-70
2022/07/14 14:19:43;;;;;;;1999.90;999.90;;;;;;;;;;5072409;28;20572;-69
2022/07/14 14:22:28;;;;;;;1999.90;999.90;;;;;;;;;;5072426;28;20242;-69
2022/07/14 14:25:13;;;;;;;1999.90;999.90;;;;;;;;;;5072622;28;20208;-69
2022/07/14 14:27:58;;;;;;;1999.90;999.90;;;;;;;;;;5072237;28;20204;-69
2022/07/14 14:30:43;;;;;;;1999.90;999.90;;;;;;;;;;5072356;28;20302;-69
2022/07/14 14:33:30;;;;;;;1999.90;999.90;;;;;;;;;;5072582;28;20199;-68
2022/07/14 14:36:16;;;;;;;1999.90;999.90;;;;;;;;;;5071803;28;20408;-69
2022/07/14 14:39:01;;;;;;;1999.90;999.90;;;;;;;;;;5067485;28;20319;-69
2022/07/14 14:41:46;;;;;;;1999.90;999.90;;;;;;;;;;5064948;28;20235;-70
2022/07/14 14:44:32;;;;;;;1999.90;999.90;;;;;;;;;;5055007;28;20210;-70
2022/07/14 14:47:16;;;;;;;1999.90;999.90;;;;;;;;;;5072355;28;20293;-68
2022/07/14 14:50:02;;;;;;;1999.90;999.90;;;;;;;;;;5069135;28;20208;-71
2022/07/14 14:52:49;;;;;;;1999.90;999.90;;;;;;;;;;5062076;28;20428;-69
2022/07/14 14:55:34;;;;;;;1999.90;999.90;;;;;;;;;;5060883;28;20475;-70
2022/07/14 14:58:19;;;;;;;1999.90;999.90;;;;;;;;;;5066494;28;20729;-70
2022/07/14 15:01:05;;;;;;;1999.90;999.90;;;;;;;;;;5061046;28;20256;-70
2022/07/14 15:03:50;;;;;;;1999.90;999.90;;;;;;;;;;5068243;28;20274;-70
2022/07/14 15:06:35;;;;;;;1999.90;999.90;;;;;;;;;;5063596;28;20204;-70
2022/07/14 15:09:22;;;;;;;1999.90;999.90;;;;;;;;;;5067052;28;21780;-70
2022/07/14 15:12:09;;;;;;;1999.90;999.90;;;;;;;;;;5065372;28;20228;-70
2022/07/14 15:14:54;;;;;;;1999.90;999.90;;;;;;;;;;5071985;28;20566;-70
2022/07/14 15:17:39;;;;;;;1999.90;999.90;;;;;;;;;;5071670;28;20290;-70
2022/07/14 15:20:24;;;;;;;1999.90;999.90;;;;;;;;;;5072756;28;20216;-69
2022/07/14 15:23:09;;;;;;;1999.90;999.90;;;;;;;;;;5073414;28;20206;-70
2022/07/14 15:25:55;;;;;;;1999.90;999.90;;;;;;;;;;5071558;28;20277;-70
2022/07/14 15:28:40;;;;;;;1999.90;999.90;;;;;;;;;;5051722;28;20213;-70
2022/07/14 15:31:26;;;;;;;1999.90;999.90;;;;;;;;;;5054196;28;20264;-70
2022/07/14 15:34:11;;;;;;;1999.90;999.90;;;;;;;;;;5052864;28;20241;-70
2022/07/14 15:36:56;;;;;;;1999.90;999.90;;;;;;;;;;5051842;28;20210;-70
2022/07/14 15:42:45;;;;;;;1999.90;999.90;;;;;;;;;;5050648;28;20397;-70
2022/07/14 15:45:31;;;;;;;1999.90;999.90;;;;;;;;;;5052599;28;20233;-70
2022/07/14 15:48:17;;;;;;;1999.90;999.90;;;;;;;;;;5069794;28;20213;-71
2022/07/14 15:51:05;;;;;;;1999.90;999.90;;;;;;;;;;5053466;28;20320;-70
2022/07/14 15:53:50;;;;;;;1999.90;999.90;;;;;;;;;;5065711;28;20217;-70
2022/07/14 15:56:35;;;;;;;1999.90;999.90;;;;;;;;;;5063036;28;20216;-70
2022/07/14 15:59:22;;;;;;;1999.90;999.90;;;;;;;;;;5062819;28;20324;-69
2022/07/14 16:02:06;;;;;;;1999.90;999.90;;;;;;;;;;5071558;28;20236;-69
2022/07/14 16:04:51;;;;;;;1999.90;999.90;;;;;;;;;;5071356;28;20212;-70
2022/07/14 16:07:36;;;;;;;1999.90;999.90;;;;;;;;;;5066468;28;20225;-70
2022/07/14 16:10:22;;;;;;;1999.90;999.90;;;;;;;;;;5056088;28;20217;-70
2022/07/14 16:13:07;;;;;;;1999.90;999.90;;;;;;;;;;5064846;28;20302;-70
2022/07/14 16:15:53;;;;;;;1999.90;999.90;;;;;;;;;;5075020;28;20216;-71
2022/07/14 16:18:38;;;;;;;1999.90;999.90;;;;;;;;;;5074846;28;20308;-71
2022/07/14 16:21:23;;;;;;;1999.90;999.90;;;;;;;;;;5074779;28;20856;-70
2022/07/14 16:24:08;;;;;;;1999.90;999.90;;;;;;;;;;5074892;28;20204;-70
2022/07/14 16:26:53;;;;;;;1999.90;999.90;;;;;;;;;;5075009;28;20693;-71
2022/07/14 16:29:37;;;;;;;1999.90;999.90;;;;;;;;;;5073484;28;20258;-70
2022/07/14 16:32:24;;;;;;;1999.90;999.90;;;;;;;;;;5071051;28;20829;-70
2022/07/14 16:35:09;;;;;;;1999.90;999.90;;;;;;;;;;5074298;28;20208;-70
2022/07/14 16:37:54;;;;;;;1999.90;999.90;;;;;;;;;;5074562;28;20294;-70
2022/07/14 16:40:39;;;;;;;1999.90;999.90;;;;;;;;;;5073185;28;20764;-70
2022/07/14 16:43:24;;;;;;;1999.90;999.90;;;;;;;;;;5060012;28;20295;-71
2022/07/14 16:46:15;;;;;;;1999.90;999.90;;;;;;;;;;5061512;28;20218;-70
2022/07/14 16:49:01;;;;;;;1999.90;999.90;;;;;;;;;;5073559;28;20208;-70
2022/07/14 16:51:47;;;;;;;1999.90;999.90;;;;;;;;;;5072763;28;20216;-70
2022/07/14 16:54:32;;;;;;;1999.90;999.90;;;;;;;;;;5073318;28;20254;-70
2022/07/14 16:57:17;;;;;;;1999.90;999.90;;;;;;;;;;5081184;28;20426;-69
2022/07/14 17:00:08;;;;;;;1999.90;999.90;;;;;;;;;;5071431;28;20697;-70
2022/07/14 17:02:56;;;;;;;1999.90;999.90;;;;;;;;;;5072231;28;20572;-70
2022/07/14 17:08:45;;;;;;;1999.90;999.90;;;;;;;;;;5060068;28;20231;-70
2022/07/14 17:11:30;;;;;;;1999.90;999.90;;;;;;;;;;5067790;28;20621;-70
2022/07/14 17:14:16;;;;;;;1999.90;999.90;;;;;;;;;;5073071;28;20468;-70
2022/07/14 17:17:01;;;;;;;1999.90;999.90;;;;;;;;;;5073519;28;20744;-69
2022/07/14 17:19:46;;;;;;;1999.90;999.90;;;;;;;;;;5073393;28;20702;-70
2022/07/14 17:22:33;;;;;;;1999.90;999.90;;;;;;;;;;5067057;28;20225;-69
2022/07/14 17:25:22;;;;;;;1999.90;999.90;;;;;;;;;;5073289;28;20204;-70
2022/07/14 17:28:07;;;;;;;1999.90;999.90;;;;;;;;;;5073128;28;20704;-69
2022/07/14 17:30:52;;;;;;;1999.90;999.90;;;;;;;;;;5073219;28;20603;-68
2022/07/14 17:33:38;;;;;;;1999.90;999.90;;;;;;;;;;5063768;28;20217;-70
2022/07/14 17:36:23;;;;;;;1999.90;999.90;;;;;;;;;;5070276;28;20201;-70
2022/07/14 17:39:09;;;;;;;1999.90;999.90;;;;;;;;;;5068861;28;20585;-69
2022/07/14 17:41:54;;;;;;;1999.90;999.90;;;;;;;;;;5069268;28;20245;-69
2022/07/14 17:44:39;;;;;;;1999.90;999.90;;;;;;;;;;5071161;28;20208;-70
2022/07/14 17:47:24;;;;;;;1999.90;999.90;;;;;;;;;;5069711;28;20497;-70
2022/07/14 17:50:09;;;;;;;1999.90;999.90;;;;;;;;;;5068415;28;20224;-69
2022/07/14 17:52:55;;;;;;;1999.90;999.90;;;;;;;;;;5070382;28;20573;-70
2022/07/14 17:55:41;;;;;;;1999.90;999.90;;;;;;;;;;5068182;28;21046;-70
2022/07/14 17:58:26;;;;;;;1999.90;999.90;;;;;;;;;;5068868;28;20208;-70
2022/07/14 18:01:11;;;;;;;1999.90;999.90;;;;;;;;;;5067740;28;20220;-70
2022/07/14 18:03:55;;;;;;;1999.90;999.90;;;;;;;;;;5067221;28;20575;-70
2022/07/14 18:06:41;;;;;;;1999.90;999.90;;;;;;;;;;5067448;28;20192;-71
2022/07/14 18:09:27;;;;;;;1999.90;999.90;;;;;;;;;;5066993;28;20347;-71
2022/07/14 18:12:13;;;;;;;1999.90;999.90;;;;;;;;;;5067352;28;20792;-70
2022/07/14 18:14:58;;;;;;;1999.90;999.90;;;;;;;;;;5069658;28;20677;-69
2022/07/14 18:17:44;;;;;;;1999.90;999.90;;;;;;;;;;5068675;28;20208;-70
2022/07/14 18:20:29;;;;;;;1999.90;999.90;;;;;;;;;;5068644;28;20280;-70
2022/07/14 18:23:14;;;;;;;1999.90;999.90;;;;;;;;;;5066769;28;20224;-71
2022/07/14 18:26:00;;;;;;;1999.90;999.90;;;;;;;;;;5067575;28;20208;-71
2022/07/14 18:28:47;;;;;;;1999.90;999.90;;;;;;;;;;5065542;28;20215;-70
2022/07/14 18:31:32;;;;;;;1999.90;999.90;;;;;;;;;;5069561;28;20481;-70
2022/07/14 18:34:18;;;;;;;1999.90;999.90;;;;;;;;;;5066513;28;20411;-71
2022/07/14 18:37:04;;;;;;;1999.90;999.90;;;;;;;;;;5068139;28;20212;-70
2022/07/14 18:39:50;;;;;;;1999.90;999.90;;;;;;;;;;5066108;28;20817;-70
2022/07/14 18:42:35;;;;;;;1999.90;999.90;;;;;;;;;;5065381;28;20298;-70
2022/07/14 18:48:24;;;;;;;1999.90;999.90;;;;;;;;;;5069851;28;20841;-70
2022/07/14 18:51:10;;;;;;;1999.90;999.90;;;;;;;;;;5069707;28;20219;-71
2022/07/14 18:53:55;;;;;;;1999.90;999.90;;;;;;;;;;5069925;28;20208;-71
2022/07/14 18:56:40;;;;;;;1999.90;999.90;;;;;;;;;;5065688;28;21123;-71
2022/07/14 18:59:25;;;;;;;1999.90;999.90;;;;;;;;;;5065131;28;20208;-69
2022/07/14 19:02:11;;;;;;;1999.90;999.90;;;;;;;;;;5069361;28;20733;-70
2022/07/14 19:04:56;;;;;;;1999.90;999.90;;;;;;;;;;5068404;28;20656;-69
2022/07/14 19:07:42;;;;;;;1999.90;999.90;;;;;;;;;;5066504;28;20252;-70
2022/07/14 19:10:28;;;;;;;1999.90;999.90;;;;;;;;;;5066675;28;20210;-70
2022/07/14 19:13:17;;;;;;;1999.90;999.90;;;;;;;;;;5066261;28;20289;-70
2022/07/14 19:16:02;;;;;;;1999.90;999.90;;;;;;;;;;5069116;28;20776;-71
2022/07/14 19:18:49;;;;;;;1999.90;999.90;;;;;;;;;;5068653;28;20205;-70
2022/07/14 19:21:35;;;;;;;1999.90;999.90;;;;;;;;;;5067615;28;20227;-69
2022/07/14 19:24:20;;;;;;;1999.90;999.90;;;;;;;;;;5067478;28;20333;-69
2022/07/14 19:27:06;;;;;;;1999.90;999.90;;;;;;;;;;5069032;28;20292;-69
2022/07/14 19:29:51;;;;;;;1999.90;999.90;;;;;;;;;;5067541;28;20500;-69
2022/07/14 19:32:36;;;;;;;1999.90;999.90;;;;;;;;;;5068824;28;20709;-69
2022/07/14 19:35:22;;;;;;;1999.90;999.90;;;;;;;;;;5069459;28;20575;-69
2022/07/14 19:38:07;;;;;;;1999.90;999.90;;;;;;;;;;5068517;28;20210;-68
2022/07/14 19:40:52;;;;;;;1999.90;999.90;;;;;;;;;;5069814;28;20352;-68
2022/07/14 19:43:37;;;;;;;1999.90;999.90;;;;;;;;;;5073551;28;20215;-69
2022/07/14 19:46:22;;;;;;;1999.90;999.90;;;;;;;;;;5071789;28;20403;-69
2022/07/14 19:49:07;;;;;;;1999.90;999.90;;;;;;;;;;5072805;28;20215;-69
2022/07/14 19:51:53;;;;;;;1999.90;999.90;;;;;;;;;;5070938;28;20235;-69
2022/07/14 19:54:38;;;;;;;1999.90;999.90;;;;;;;;;;5072910;28;20281;-69
2022/07/14 19:57:24;;;;;;;1999.90;999.90;;;;;;;;;;5071815;28;20213;-69
2022/07/14 20:00:10;;;;;;;1999.90;999.90;;;;;;;;;;5071502;28;20235;-69
2022/07/14 20:02:55;;;;;;;1999.90;999.90;;;;;;;;;;5070861;28;20226;-69
2022/07/14 20:05:40;;;;;;;1999.90;999.90;;;;;;;;;;5072482;28;20213;-69